<?xml version="1.0" encoding="UTF-8" standalone="no" ?>
<gpx xmlns="http://www.topografix.com/GPX/1/1" xmlns:xsi="http://www.w3.org/2001/XMLSchema-instance" xsi:schemaLocation="http://www.topografix.com/GPX/1/1 http://www.topografix.com/GPX/1/1/gpx.xsd" version="1.1" creator="VisuGPX - https://www.visugpx.com">
  <metadata>
    <name>boucles beaumont</name>
    <desc><![CDATA[boucles beaumont du périgord]]></desc>
  </metadata>
  <trk>
    <name><![CDATA[BBmt58]]></name>
    <trkseg>
      <trkpt lat="44.76888" lon="0.75648">
        <ele>118</ele>
        <time>2009-01-19T14:01:45Z</time>
      </trkpt>
      <trkpt lat="44.76895" lon="0.75623">
        <ele>113</ele>
        <time>2009-01-19T14:02:40Z</time>
      </trkpt>
      <trkpt lat="44.76898" lon="0.75595">
        <ele>108</ele>
        <time>2009-01-19T14:02:46Z</time>
      </trkpt>
      <trkpt lat="44.769" lon="0.75563">
        <ele>103</ele>
        <time>2009-01-19T14:02:51Z</time>
      </trkpt>
      <trkpt lat="44.76895" lon="0.75535">
        <ele>104</ele>
        <time>2009-01-19T14:02:54Z</time>
      </trkpt>
      <trkpt lat="44.76885" lon="0.75508">
        <ele>103</ele>
        <time>2009-01-19T14:02:58Z</time>
      </trkpt>
      <trkpt lat="44.76875" lon="0.75485">
        <ele>99</ele>
        <time>2009-01-19T14:03:01Z</time>
      </trkpt>
      <trkpt lat="44.76868" lon="0.75458">
        <ele>95</ele>
        <time>2009-01-19T14:03:06Z</time>
      </trkpt>
      <trkpt lat="44.7686" lon="0.7543">
        <ele>94</ele>
        <time>2009-01-19T14:03:10Z</time>
      </trkpt>
      <trkpt lat="44.76855" lon="0.75398">
        <ele>95</ele>
        <time>2009-01-19T14:03:12Z</time>
      </trkpt>
      <trkpt lat="44.76853" lon="0.7536">
        <ele>98</ele>
        <time>2009-01-19T14:03:15Z</time>
      </trkpt>
      <trkpt lat="44.76845" lon="0.7533">
        <ele>97</ele>
        <time>2009-01-19T14:03:18Z</time>
      </trkpt>
      <trkpt lat="44.76828" lon="0.75313">
        <ele>97</ele>
        <time>2009-01-19T14:03:21Z</time>
      </trkpt>
      <trkpt lat="44.76813" lon="0.75298">
        <ele>101</ele>
        <time>2009-01-19T14:03:32Z</time>
      </trkpt>
      <trkpt lat="44.76798" lon="0.75273">
        <ele>101</ele>
        <time>2009-01-19T14:03:35Z</time>
      </trkpt>
      <trkpt lat="44.7678" lon="0.75243">
        <ele>102</ele>
        <time>2009-01-19T14:03:39Z</time>
      </trkpt>
      <trkpt lat="44.76763" lon="0.75213">
        <ele>103</ele>
        <time>2009-01-19T14:03:41Z</time>
      </trkpt>
      <trkpt lat="44.76755" lon="0.75188">
        <ele>104</ele>
        <time>2009-01-19T14:03:43Z</time>
      </trkpt>
      <trkpt lat="44.76758" lon="0.75155">
        <ele>107</ele>
        <time>2009-01-19T14:03:46Z</time>
      </trkpt>
      <trkpt lat="44.7676" lon="0.75125">
        <ele>110</ele>
        <time>2009-01-19T14:03:48Z</time>
      </trkpt>
      <trkpt lat="44.7676" lon="0.75095">
        <ele>112</ele>
        <time>2009-01-19T14:03:50Z</time>
      </trkpt>
      <trkpt lat="44.76758" lon="0.75065">
        <ele>111</ele>
        <time>2009-01-19T14:03:52Z</time>
      </trkpt>
      <trkpt lat="44.7675" lon="0.75035">
        <ele>119</ele>
        <time>2009-01-19T14:04:01Z</time>
      </trkpt>
      <trkpt lat="44.76743" lon="0.75005">
        <ele>120</ele>
        <time>2009-01-19T14:04:05Z</time>
      </trkpt>
      <trkpt lat="44.76738" lon="0.74975">
        <ele>119</ele>
        <time>2009-01-19T14:04:09Z</time>
      </trkpt>
      <trkpt lat="44.76725" lon="0.74953">
        <ele>118</ele>
        <time>2009-01-19T14:04:22Z</time>
      </trkpt>
      <trkpt lat="44.76708" lon="0.7493">
        <ele>117</ele>
        <time>2009-01-19T14:04:27Z</time>
      </trkpt>
      <trkpt lat="44.76695" lon="0.7491">
        <ele>117</ele>
        <time>2009-01-19T14:04:31Z</time>
      </trkpt>
      <trkpt lat="44.7668" lon="0.74888">
        <ele>117</ele>
        <time>2009-01-19T14:04:35Z</time>
      </trkpt>
      <trkpt lat="44.76658" lon="0.74873">
        <ele>117</ele>
        <time>2009-01-19T14:04:39Z</time>
      </trkpt>
      <trkpt lat="44.76638" lon="0.74863">
        <ele>118</ele>
        <time>2009-01-19T14:04:42Z</time>
      </trkpt>
      <trkpt lat="44.76618" lon="0.74848">
        <ele>118</ele>
        <time>2009-01-19T14:04:45Z</time>
      </trkpt>
      <trkpt lat="44.766" lon="0.7483">
        <ele>120</ele>
        <time>2009-01-19T14:04:48Z</time>
      </trkpt>
      <trkpt lat="44.7658" lon="0.74813">
        <ele>121</ele>
        <time>2009-01-19T14:04:51Z</time>
      </trkpt>
      <trkpt lat="44.76563" lon="0.7479">
        <ele>122</ele>
        <time>2009-01-19T14:04:54Z</time>
      </trkpt>
      <trkpt lat="44.76545" lon="0.7477">
        <ele>123</ele>
        <time>2009-01-19T14:04:57Z</time>
      </trkpt>
      <trkpt lat="44.7646" lon="0.74113">
        <ele>107</ele>
        <time>2009-01-19T14:16:53Z</time>
      </trkpt>
      <trkpt lat="44.76443" lon="0.74095">
        <ele>106</ele>
        <time>2009-01-19T14:17:10Z</time>
      </trkpt>
      <trkpt lat="44.76433" lon="0.74073">
        <ele>105</ele>
        <time>2009-01-19T14:17:14Z</time>
      </trkpt>
      <trkpt lat="44.76418" lon="0.7405">
        <ele>105</ele>
        <time>2009-01-19T14:17:18Z</time>
      </trkpt>
      <trkpt lat="44.76398" lon="0.74035">
        <ele>104</ele>
        <time>2009-01-19T14:17:21Z</time>
      </trkpt>
      <trkpt lat="44.76383" lon="0.7402">
        <ele>104</ele>
        <time>2009-01-19T14:17:25Z</time>
      </trkpt>
      <trkpt lat="44.76368" lon="0.74">
        <ele>103</ele>
        <time>2009-01-19T14:17:38Z</time>
      </trkpt>
      <trkpt lat="44.76353" lon="0.73985">
        <ele>102</ele>
        <time>2009-01-19T14:17:46Z</time>
      </trkpt>
      <trkpt lat="44.7634" lon="0.73965">
        <ele>102</ele>
        <time>2009-01-19T14:17:53Z</time>
      </trkpt>
      <trkpt lat="44.7633" lon="0.73943">
        <ele>100</ele>
        <time>2009-01-19T14:18:02Z</time>
      </trkpt>
      <trkpt lat="44.7632" lon="0.73918">
        <ele>100</ele>
        <time>2009-01-19T14:18:09Z</time>
      </trkpt>
      <trkpt lat="44.76308" lon="0.73893">
        <ele>100</ele>
        <time>2009-01-19T14:18:15Z</time>
      </trkpt>
      <trkpt lat="44.76295" lon="0.7387">
        <ele>99</ele>
        <time>2009-01-19T14:18:20Z</time>
      </trkpt>
      <trkpt lat="44.76283" lon="0.73848">
        <ele>102</ele>
        <time>2009-01-19T14:18:27Z</time>
      </trkpt>
      <trkpt lat="44.76273" lon="0.73825">
        <ele>100</ele>
        <time>2009-01-19T14:18:32Z</time>
      </trkpt>
      <trkpt lat="44.7626" lon="0.73805">
        <ele>101</ele>
        <time>2009-01-19T14:18:38Z</time>
      </trkpt>
      <trkpt lat="44.7625" lon="0.73783">
        <ele>101</ele>
        <time>2009-01-19T14:18:44Z</time>
      </trkpt>
      <trkpt lat="44.76235" lon="0.73765">
        <ele>91</ele>
        <time>2009-01-19T14:18:58Z</time>
      </trkpt>
      <trkpt lat="44.76228" lon="0.7374">
        <ele>94</ele>
        <time>2009-01-19T14:19:06Z</time>
      </trkpt>
      <trkpt lat="44.7622" lon="0.73715">
        <ele>96</ele>
        <time>2009-01-19T14:19:13Z</time>
      </trkpt>
      <trkpt lat="44.76213" lon="0.7369">
        <ele>97</ele>
        <time>2009-01-19T14:19:20Z</time>
      </trkpt>
      <trkpt lat="44.76208" lon="0.73663">
        <ele>98</ele>
        <time>2009-01-19T14:19:28Z</time>
      </trkpt>
      <trkpt lat="44.76208" lon="0.73635">
        <ele>99</ele>
        <time>2009-01-19T14:19:33Z</time>
      </trkpt>
      <trkpt lat="44.7621" lon="0.73608">
        <ele>98</ele>
        <time>2009-01-19T14:19:40Z</time>
      </trkpt>
      <trkpt lat="44.76218" lon="0.73583">
        <ele>98</ele>
        <time>2009-01-19T14:19:49Z</time>
      </trkpt>
      <trkpt lat="44.76215" lon="0.73493">
        <ele>105</ele>
        <time>2009-01-19T14:30:39Z</time>
      </trkpt>
      <trkpt lat="44.762" lon="0.73473">
        <ele>104</ele>
        <time>2009-01-19T14:30:50Z</time>
      </trkpt>
      <trkpt lat="44.76185" lon="0.73453">
        <ele>103</ele>
        <time>2009-01-19T14:30:59Z</time>
      </trkpt>
      <trkpt lat="44.7617" lon="0.73435">
        <ele>100</ele>
        <time>2009-01-19T14:31:07Z</time>
      </trkpt>
      <trkpt lat="44.76155" lon="0.7342">
        <ele>100</ele>
        <time>2009-01-19T14:31:26Z</time>
      </trkpt>
      <trkpt lat="44.7614" lon="0.734">
        <ele>99</ele>
        <time>2009-01-19T14:31:32Z</time>
      </trkpt>
      <trkpt lat="44.76125" lon="0.73383">
        <ele>105</ele>
        <time>2009-01-19T14:32:08Z</time>
      </trkpt>
      <trkpt lat="44.7611" lon="0.73363">
        <ele>106</ele>
        <time>2009-01-19T14:32:14Z</time>
      </trkpt>
      <trkpt lat="44.761" lon="0.7334">
        <ele>106</ele>
        <time>2009-01-19T14:32:19Z</time>
      </trkpt>
      <trkpt lat="44.76088" lon="0.7332">
        <ele>106</ele>
        <time>2009-01-19T14:32:24Z</time>
      </trkpt>
      <trkpt lat="44.76075" lon="0.733">
        <ele>108</ele>
        <time>2009-01-19T14:32:34Z</time>
      </trkpt>
      <trkpt lat="44.76055" lon="0.73285">
        <ele>110</ele>
        <time>2009-01-19T14:32:43Z</time>
      </trkpt>
      <trkpt lat="44.76035" lon="0.7327">
        <ele>113</ele>
        <time>2009-01-19T14:33:31Z</time>
      </trkpt>
      <trkpt lat="44.76018" lon="0.73255">
        <ele>113</ele>
        <time>2009-01-19T14:33:36Z</time>
      </trkpt>
      <trkpt lat="44.76" lon="0.73243">
        <ele>114</ele>
        <time>2009-01-19T14:33:43Z</time>
      </trkpt>
      <trkpt lat="44.75983" lon="0.73228">
        <ele>113</ele>
        <time>2009-01-19T14:33:48Z</time>
      </trkpt>
      <trkpt lat="44.75965" lon="0.73213">
        <ele>113</ele>
        <time>2009-01-19T14:33:51Z</time>
      </trkpt>
      <trkpt lat="44.75948" lon="0.73203">
        <ele>113</ele>
        <time>2009-01-19T14:34:06Z</time>
      </trkpt>
      <trkpt lat="44.75934" lon="0.73203">
        <ele>113</ele>
        <time>2009-01-19T14:34:10Z</time>
      </trkpt>
      <trkpt lat="44.7591" lon="0.73188">
        <ele>113</ele>
        <time>2009-06-18T16:43:36Z</time>
      </trkpt>
      <trkpt lat="44.7589" lon="0.73189">
        <ele>113</ele>
        <time>2009-06-18T16:43:36Z</time>
      </trkpt>
      <trkpt lat="44.75869" lon="0.73186">
        <ele>113</ele>
        <time>2009-06-18T16:43:36Z</time>
      </trkpt>
      <trkpt lat="44.75733" lon="0.73064">
        <ele>117</ele>
        <time>2009-06-18T16:43:36Z</time>
      </trkpt>
      <trkpt lat="44.75729" lon="0.73023">
        <ele>121</ele>
        <time>2009-06-18T16:43:36Z</time>
      </trkpt>
      <trkpt lat="44.75744" lon="0.72972">
        <ele>125</ele>
        <time>2009-06-18T16:43:36Z</time>
      </trkpt>
      <trkpt lat="44.75777" lon="0.72924">
        <ele>131</ele>
        <time>2009-06-18T16:43:36Z</time>
      </trkpt>
      <trkpt lat="44.75828" lon="0.7272">
        <ele>141</ele>
        <time>2009-01-19T14:35:51Z</time>
      </trkpt>
      <trkpt lat="44.75833" lon="0.72695">
        <ele>140</ele>
        <time>2009-01-19T14:36:05Z</time>
      </trkpt>
      <trkpt lat="44.75828" lon="0.72668">
        <ele>141</ele>
        <time>2009-01-19T14:36:18Z</time>
      </trkpt>
      <trkpt lat="44.75815" lon="0.72643">
        <ele>142</ele>
        <time>2009-01-19T14:36:23Z</time>
      </trkpt>
      <trkpt lat="44.75805" lon="0.72618">
        <ele>144</ele>
        <time>2009-01-19T14:36:29Z</time>
      </trkpt>
      <trkpt lat="44.75795" lon="0.72595">
        <ele>144</ele>
        <time>2009-01-19T14:36:32Z</time>
      </trkpt>
      <trkpt lat="44.75783" lon="0.7257">
        <ele>145</ele>
        <time>2009-01-19T14:36:38Z</time>
      </trkpt>
      <trkpt lat="44.7577" lon="0.72545">
        <ele>146</ele>
        <time>2009-01-19T14:36:42Z</time>
      </trkpt>
      <trkpt lat="44.7576" lon="0.72523">
        <ele>149</ele>
        <time>2009-01-19T14:36:48Z</time>
      </trkpt>
      <trkpt lat="44.75753" lon="0.72498">
        <ele>150</ele>
        <time>2009-01-19T14:36:52Z</time>
      </trkpt>
      <trkpt lat="44.75743" lon="0.72473">
        <ele>152</ele>
        <time>2009-01-19T14:36:58Z</time>
      </trkpt>
      <trkpt lat="44.75743" lon="0.72443">
        <ele>147</ele>
        <time>2009-01-19T14:37:24Z</time>
      </trkpt>
    </trkseg>
  </trk>
</gpx>